sensor_id;sensor_type;location;lat;lon;timestamp;pressure;altitude;pressure_sealevel;temperature;humidity
72465;BME280;60471;52.150;4.508;2023-05-08T00:01:49;101826.69;;;15.54;78.96
72465;BME280;60471;52.150;4.508;2023-05-08T00:04:15;101833.25;;;15.47;78.85
72465;BME280;60471;52.150;4.508;2023-05-08T00:06:42;101835.22;;;15.44;79.43
72465;BME280;60471;52.150;4.508;2023-05-08T00:09:08;101828.25;;;15.41;79.74
72465;BME280;60471;52.150;4.508;2023-05-08T00:11:34;101824.50;;;15.45;79.34
72465;BME280;60471;52.150;4.508;2023-05-08T00:14:01;101820.66;;;15.51;79.28
72465;BME280;60471;52.150;4.508;2023-05-08T00:16:27;101815.41;;;15.49;78.94
72465;BME280;60471;52.150;4.508;2023-05-08T00:18:53;101817.88;;;15.36;79.14
72465;BME280;60471;52.150;4.508;2023-05-08T00:21:19;101817.25;;;15.31;79.75
72465;BME280;60471;52.150;4.508;2023-05-08T00:23:45;101824.28;;;15.32;79.67
72465;BME280;60471;52.150;4.508;2023-05-08T00:26:12;101818.97;;;15.32;80.16
72465;BME280;60471;52.150;4.508;2023-05-08T00:28:38;101825.84;;;15.36;79.90
72465;BME280;60471;52.150;4.508;2023-05-08T00:31:04;101819.84;;;15.33;80.01
72465;BME280;60471;52.150;4.508;2023-05-08T00:33:30;101816.16;;;15.35;79.48
72465;BME280;60471;52.150;4.508;2023-05-08T00:36:00;101820.44;;;15.38;78.90
72465;BME280;60471;52.150;4.508;2023-05-08T00:38:31;101825.44;;;15.27;79.17
72465;BME280;60471;52.150;4.508;2023-05-08T00:40:58;101818.19;;;15.30;79.19
72465;BME280;60471;52.150;4.508;2023-05-08T00:43:25;101829.31;;;15.21;79.00
72465;BME280;60471;52.150;4.508;2023-05-08T00:45:58;101828.59;;;15.18;79.60
72465;BME280;60471;52.150;4.508;2023-05-08T00:48:32;101837.38;;;15.20;79.87
72465;BME280;60471;52.150;4.508;2023-05-08T00:51:01;101825.84;;;15.19;79.78
72465;BME280;60471;52.150;4.508;2023-05-08T00:53:32;101824.50;;;15.28;79.43
72465;BME280;60471;52.150;4.508;2023-05-08T00:56:02;101818.19;;;15.30;78.90
72465;BME280;60471;52.150;4.508;2023-05-08T00:58:30;101822.72;;;15.28;79.11
72465;BME280;60471;52.150;4.508;2023-05-08T01:00:58;101813.97;;;15.26;78.74
72465;BME280;60471;52.150;4.508;2023-05-08T01:03:25;101818.13;;;15.32;78.45
72465;BME280;60471;52.150;4.508;2023-05-08T01:05:53;101816.31;;;15.32;78.51
72465;BME280;60471;52.150;4.508;2023-05-08T01:08:19;101817.25;;;15.31;78.58
72465;BME280;60471;52.150;4.508;2023-05-08T01:11:14;101819.97;;;15.30;78.52
72465;BME280;60471;52.150;4.508;2023-05-08T01:19:49;101822.72;;;15.11;79.48
72465;BME280;60471;52.150;4.508;2023-05-08T01:31:38;101827.00;;;14.96;79.75
72465;BME280;60471;52.150;4.508;2023-05-08T01:34:11;101828.69;;;14.99;79.88
72465;BME280;60471;52.150;4.508;2023-05-08T01:37:05;101827.63;;;15.19;78.89
72465;BME280;60471;52.150;4.508;2023-05-08T01:39:50;101830.38;;;15.17;78.37
72465;BME280;60471;52.150;4.508;2023-05-08T01:45:02;101834.59;;;15.04;78.74
72465;BME280;60471;52.150;4.508;2023-05-08T01:47:36;101832.03;;;15.02;78.08
72465;BME280;60471;52.150;4.508;2023-05-08T01:50:17;101832.13;;;15.01;78.38
72465;BME280;60471;52.150;4.508;2023-05-08T01:52:52;101834.22;;;14.94;78.73
72465;BME280;60471;52.150;4.508;2023-05-08T01:55:30;101832.56;;;14.92;78.71
72465;BME280;60471;52.150;4.508;2023-05-08T01:58:03;101840.13;;;14.82;79.04
72465;BME280;60471;52.150;4.508;2023-05-08T02:00:37;101839.13;;;14.85;78.98
72465;BME280;60471;52.150;4.508;2023-05-08T02:03:07;101832.09;;;14.84;79.06
72465;BME280;60471;52.150;4.508;2023-05-08T02:05:36;101840.06;;;14.84;78.99
72465;BME280;60471;52.150;4.508;2023-05-08T02:08:03;101845.44;;;14.82;79.02
72465;BME280;60471;52.150;4.508;2023-05-08T02:10:36;101842.88;;;14.81;78.76
72465;BME280;60471;52.150;4.508;2023-05-08T02:13:04;101849.66;;;14.86;78.68
72465;BME280;60471;52.150;4.508;2023-05-08T02:15:32;101843.13;;;14.93;78.76
72465;BME280;60471;52.150;4.508;2023-05-08T02:18:04;101850.00;;;14.80;78.76
72465;BME280;60471;52.150;4.508;2023-05-08T02:20:33;101846.69;;;14.75;79.40
72465;BME280;60471;52.150;4.508;2023-05-08T02:23:00;101854.66;;;14.75;79.60
72465;BME280;60471;52.150;4.508;2023-05-08T02:25:28;101848.78;;;14.68;79.70
72465;BME280;60471;52.150;4.508;2023-05-08T02:27:56;101843.41;;;14.70;79.84
72465;BME280;60471;52.150;4.508;2023-05-08T02:30:24;101849.34;;;14.75;79.21
72465;BME280;60471;52.150;4.508;2023-05-08T02:32:53;101845.91;;;14.73;79.57
72465;BME280;60471;52.150;4.508;2023-05-08T02:35:22;101844.19;;;14.72;79.52
72465;BME280;60471;52.150;4.508;2023-05-08T02:37:54;101847.69;;;14.72;79.21
72465;BME280;60471;52.150;4.508;2023-05-08T02:40:26;101846.84;;;14.72;79.08
72465;BME280;60471;52.150;4.508;2023-05-08T02:42:54;101844.50;;;14.66;79.34
72465;BME280;60471;52.150;4.508;2023-05-08T02:45:24;101852.84;;;14.75;79.00
72465;BME280;60471;52.150;4.508;2023-05-08T02:48:09;101851.13;;;14.74;78.85
72465;BME280;60471;52.150;4.508;2023-05-08T02:50:46;101838.09;;;14.70;78.72
72465;BME280;60471;52.150;4.508;2023-05-08T02:53:31;101835.44;;;14.70;79.09
72465;BME280;60471;52.150;4.508;2023-05-08T02:56:28;101837.75;;;14.59;79.50
72465;BME280;60471;52.150;4.508;2023-05-08T02:59:08;101833.66;;;14.52;79.85
72465;BME280;60471;52.150;4.508;2023-05-08T03:04:33;101818.97;;;14.44;79.94
72465;BME280;60471;52.150;4.508;2023-05-08T03:07:05;101826.41;;;14.36;80.24
72465;BME280;60471;52.150;4.508;2023-05-08T03:09:38;101813.84;;;14.40;79.95
72465;BME280;60471;52.150;4.508;2023-05-08T03:12:13;101813.22;;;14.35;80.02
72465;BME280;60471;52.150;4.508;2023-05-08T03:14:45;101822.91;;;14.36;80.67
72465;BME280;60471;52.150;4.508;2023-05-08T03:17:36;101822.03;;;14.54;80.40
72465;BME280;60471;52.150;4.508;2023-05-08T03:20:07;101827.75;;;14.64;80.16
72465;BME280;60471;52.150;4.508;2023-05-08T03:22:37;101832.66;;;14.54;79.92
72465;BME280;60471;52.150;4.508;2023-05-08T03:25:08;101831.31;;;14.45;79.71
72465;BME280;60471;52.150;4.508;2023-05-08T03:27:36;101839.53;;;14.39;79.33
72465;BME280;60471;52.150;4.508;2023-05-08T03:30:06;101831.50;;;14.41;79.43
72465;BME280;60471;52.150;4.508;2023-05-08T03:32:34;101826.94;;;14.26;79.95
72465;BME280;60471;52.150;4.508;2023-05-08T03:35:02;101831.94;;;14.32;80.38
72465;BME280;60471;52.150;4.508;2023-05-08T03:37:30;101823.97;;;14.32;80.48
72465;BME280;60471;52.150;4.508;2023-05-08T03:39:56;101823.06;;;14.33;80.72
72465;BME280;60471;52.150;4.508;2023-05-08T03:42:24;101823.69;;;14.38;80.67
72465;BME280;60471;52.150;4.508;2023-05-08T03:44:52;101822.13;;;14.34;80.74
72465;BME280;60471;52.150;4.508;2023-05-08T03:47:20;101814.28;;;14.31;80.79
72465;BME280;60471;52.150;4.508;2023-05-08T03:49:48;101815.94;;;14.33;80.92
72465;BME280;60471;52.150;4.508;2023-05-08T03:52:15;101819.06;;;14.41;80.94
72465;BME280;60471;52.150;4.508;2023-05-08T03:54:41;101816.00;;;14.50;80.09
72465;BME280;60471;52.150;4.508;2023-05-08T03:57:08;101805.31;;;14.52;79.54
72465;BME280;60471;52.150;4.508;2023-05-08T03:59:51;101821.97;;;14.56;79.56
72465;BME280;60471;52.150;4.508;2023-05-08T04:02:46;101815.06;;;14.52;79.45
72465;BME280;60471;52.150;4.508;2023-05-08T04:05:23;101815.00;;;14.53;79.68
72465;BME280;60471;52.150;4.508;2023-05-08T04:11:11;101807.31;;;14.66;78.77
72465;BME280;60471;52.150;4.508;2023-05-08T04:13:53;101819.34;;;14.73;78.69
72465;BME280;60471;52.150;4.508;2023-05-08T04:16:26;101825.13;;;14.81;78.04
72465;BME280;60471;52.150;4.508;2023-05-08T04:19:00;101830.41;;;14.64;77.37
72465;BME280;60471;52.150;4.508;2023-05-08T04:21:28;101831.09;;;14.50;77.91
72465;BME280;60471;52.150;4.508;2023-05-08T04:23:59;101838.97;;;14.52;77.06
72465;BME280;60471;52.150;4.508;2023-05-08T04:26:29;101844.50;;;14.28;78.18
72465;BME280;60471;52.150;4.508;2023-05-08T04:28:56;101838.25;;;14.29;77.25
72465;BME280;60471;52.150;4.508;2023-05-08T04:31:23;101837.19;;;14.33;78.15
72465;BME280;60471;52.150;4.508;2023-05-08T04:33:51;101843.84;;;14.42;77.59
72465;BME280;60471;52.150;4.508;2023-05-08T04:36:19;101846.44;;;14.25;77.87
72465;BME280;60471;52.150;4.508;2023-05-08T04:38:45;101843.41;;;14.32;78.46
72465;BME280;60471;52.150;4.508;2023-05-08T04:41:11;101839.97;;;14.30;78.31
72465;BME280;60471;52.150;4.508;2023-05-08T04:43:37;101842.50;;;14.33;78.61
72465;BME280;60471;52.150;4.508;2023-05-08T04:46:04;101844.84;;;14.39;78.42
72465;BME280;60471;52.150;4.508;2023-05-08T04:48:31;101845.56;;;14.62;77.46
72465;BME280;60471;52.150;4.508;2023-05-08T04:50:59;101842.63;;;14.68;77.20
72465;BME280;60471;52.150;4.508;2023-05-08T04:53:25;101845.75;;;14.76;77.09
72465;BME280;60471;52.150;4.508;2023-05-08T04:55:52;101846.84;;;14.72;77.22
72465;BME280;60471;52.150;4.508;2023-05-08T04:58:18;101843.47;;;14.68;77.36
72465;BME280;60471;52.150;4.508;2023-05-08T05:00:44;101857.09;;;14.79;77.22
72465;BME280;60471;52.150;4.508;2023-05-08T05:03:10;101849.38;;;14.92;77.05
72465;BME280;60471;52.150;4.508;2023-05-08T05:05:36;101861.72;;;14.93;76.92
72465;BME280;60471;52.150;4.508;2023-05-08T05:08:03;101861.03;;;14.90;77.59
72465;BME280;60471;52.150;4.508;2023-05-08T05:10:29;101861.03;;;14.90;77.61
72465;BME280;60471;52.150;4.508;2023-05-08T05:12:55;101868.00;;;15.10;76.98
72465;BME280;60471;52.150;4.508;2023-05-08T05:15:21;101868.53;;;15.16;77.38
72465;BME280;60471;52.150;4.508;2023-05-08T05:17:47;101866.66;;;15.18;77.58
72465;BME280;60471;52.150;4.508;2023-05-08T05:20:14;101865.50;;;15.24;77.17
72465;BME280;60471;52.150;4.508;2023-05-08T05:22:40;101868.09;;;15.25;75.58
72465;BME280;60471;52.150;4.508;2023-05-08T05:25:07;101872.72;;;15.22;76.33
72465;BME280;60471;52.150;4.508;2023-05-08T05:27:34;101876.13;;;14.89;76.55
72465;BME280;60471;52.150;4.508;2023-05-08T05:30:02;101879.72;;;15.05;77.48
72465;BME280;60471;52.150;4.508;2023-05-08T05:32:28;101879.63;;;15.07;77.04
72465;BME280;60471;52.150;4.508;2023-05-08T05:34:54;101892.94;;;15.07;77.13
72465;BME280;60471;52.150;4.508;2023-05-08T05:37:21;101894.44;;;15.13;76.83
72465;BME280;60471;52.150;4.508;2023-05-08T05:39:48;101892.38;;;15.18;76.85
72465;BME280;60471;52.150;4.508;2023-05-08T05:42:14;101899.88;;;14.92;77.41
72465;BME280;60471;52.150;4.508;2023-05-08T05:44:40;101905.34;;;14.89;77.45
72465;BME280;60471;52.150;4.508;2023-05-08T05:47:07;101900.38;;;15.00;77.47
72465;BME280;60471;52.150;4.508;2023-05-08T05:49:35;101904.28;;;15.11;77.62
72465;BME280;60471;52.150;4.508;2023-05-08T05:52:01;101907.97;;;15.25;77.83
72465;BME280;60471;52.150;4.508;2023-05-08T05:54:27;101903.66;;;15.40;77.49
72465;BME280;60471;52.150;4.508;2023-05-08T05:56:54;101909.25;;;15.70;76.75
72465;BME280;60471;52.150;4.508;2023-05-08T05:59:20;101917.03;;;15.90;75.15
72465;BME280;60471;52.150;4.508;2023-05-08T06:01:46;101903.75;;;16.06;74.53
72465;BME280;60471;52.150;4.508;2023-05-08T06:04:12;101910.47;;;16.13;72.95
72465;BME280;60471;52.150;4.508;2023-05-08T06:06:38;101905.59;;;16.21;73.49
72465;BME280;60471;52.150;4.508;2023-05-08T06:09:05;101906.75;;;16.33;73.04
72465;BME280;60471;52.150;4.508;2023-05-08T06:11:31;101911.88;;;16.20;74.08
72465;BME280;60471;52.150;4.508;2023-05-08T06:13:58;101901.69;;;16.44;73.84
72465;BME280;60471;52.150;4.508;2023-05-08T06:16:24;101906.19;;;16.27;73.93
72465;BME280;60471;52.150;4.508;2023-05-08T06:18:50;101897.75;;;16.03;74.79
72465;BME280;60471;52.150;4.508;2023-05-08T06:21:16;101904.75;;;15.88;75.52
72465;BME280;60471;52.150;4.508;2023-05-08T06:23:43;101894.47;;;15.98;75.53
72465;BME280;60471;52.150;4.508;2023-05-08T06:26:09;101900.66;;;15.98;75.55
72465;BME280;60471;52.150;4.508;2023-05-08T06:28:35;101900.03;;;15.93;74.46
72465;BME280;60471;52.150;4.508;2023-05-08T06:31:01;101915.72;;;16.15;74.66
72465;BME280;60471;52.150;4.508;2023-05-08T06:33:28;101909.78;;;16.10;74.30
72465;BME280;60471;52.150;4.508;2023-05-08T06:35:54;101901.53;;;16.14;75.03
72465;BME280;60471;52.150;4.508;2023-05-08T06:38:21;101914.00;;;16.14;74.88
72465;BME280;60471;52.150;4.508;2023-05-08T06:40:47;101905.72;;;16.03;75.36
72465;BME280;60471;52.150;4.508;2023-05-08T06:43:14;101909.78;;;16.10;75.55
72465;BME280;60471;52.150;4.508;2023-05-08T06:45:44;101910.88;;;16.06;74.68
72465;BME280;60471;52.150;4.508;2023-05-08T06:48:10;101908.47;;;16.01;74.82
72465;BME280;60471;52.150;4.508;2023-05-08T06:50:37;101911.44;;;16.12;74.77
72465;BME280;60471;52.150;4.508;2023-05-08T06:53:04;101910.84;;;16.23;75.05
72465;BME280;60471;52.150;4.508;2023-05-08T06:55:30;101905.66;;;16.69;73.38
72465;BME280;60471;52.150;4.508;2023-05-08T06:57:56;101909.72;;;16.76;71.96
72465;BME280;60471;52.150;4.508;2023-05-08T07:00:22;101908.13;;;16.56;73.25
72465;BME280;60471;52.150;4.508;2023-05-08T07:02:49;101909.97;;;16.87;73.01
72465;BME280;60471;52.150;4.508;2023-05-08T07:05:15;101901.56;;;17.09;71.91
72465;BME280;60471;52.150;4.508;2023-05-08T07:07:42;101901.72;;;17.22;70.51
72465;BME280;60471;52.150;4.508;2023-05-08T07:10:09;101901.13;;;17.17;70.36
72465;BME280;60471;52.150;4.508;2023-05-08T07:12:35;101901.56;;;17.09;71.16
72465;BME280;60471;52.150;4.508;2023-05-08T07:15:01;101903.09;;;17.13;70.69
72465;BME280;60471;52.150;4.508;2023-05-08T07:17:28;101900.72;;;17.08;71.79
72465;BME280;60471;52.150;4.508;2023-05-08T07:19:55;101897.22;;;17.38;72.17
72465;BME280;60471;52.150;4.508;2023-05-08T07:22:21;101887.97;;;17.58;68.88
72465;BME280;60471;52.150;4.508;2023-05-08T07:24:48;101885.09;;;17.77;69.81
72465;BME280;60471;52.150;4.508;2023-05-08T07:27:14;101889.88;;;17.72;69.25
72465;BME280;60471;52.150;4.508;2023-05-08T07:29:41;101894.97;;;17.60;69.27
72465;BME280;60471;52.150;4.508;2023-05-08T07:32:08;101884.84;;;17.51;69.56
72465;BME280;60471;52.150;4.508;2023-05-08T07:34:35;101897.25;;;17.66;69.88
72465;BME280;60471;52.150;4.508;2023-05-08T07:37:01;101891.19;;;17.79;69.13
72465;BME280;60471;52.150;4.508;2023-05-08T07:39:28;101895.69;;;17.92;68.69
72465;BME280;60471;52.150;4.508;2023-05-08T07:41:54;101893.97;;;17.77;69.28
72465;BME280;60471;52.150;4.508;2023-05-08T07:44:20;101891.06;;;17.66;69.96
72465;BME280;60471;52.150;4.508;2023-05-08T07:46:46;101890.34;;;17.92;68.22
72465;BME280;60471;52.150;4.508;2023-05-08T07:49:12;101886.63;;;17.95;68.35
72465;BME280;60471;52.150;4.508;2023-05-08T07:51:39;101891.69;;;18.00;68.85
72465;BME280;60471;52.150;4.508;2023-05-08T07:54:05;101902.25;;;17.87;68.82
72465;BME280;60471;52.150;4.508;2023-05-08T07:56:31;101901.25;;;17.59;70.28
72465;BME280;60471;52.150;4.508;2023-05-08T07:58:57;101903.03;;;17.75;70.32
72465;BME280;60471;52.150;4.508;2023-05-08T08:01:23;101898.75;;;17.86;69.45
72465;BME280;60471;52.150;4.508;2023-05-08T08:03:50;101898.84;;;17.99;70.13
72465;BME280;60471;52.150;4.508;2023-05-08T08:06:16;101892.06;;;17.93;69.70
72465;BME280;60471;52.150;4.508;2023-05-08T08:08:43;101896.72;;;17.90;69.22
72465;BME280;60471;52.150;4.508;2023-05-08T08:11:09;101904.94;;;18.01;68.79
72465;BME280;60471;52.150;4.508;2023-05-08T08:13:35;101897.59;;;18.19;69.51
72465;BME280;60471;52.150;4.508;2023-05-08T08:16:05;101902.84;;;18.20;68.21
72465;BME280;60471;52.150;4.508;2023-05-08T08:18:34;101893.97;;;18.06;69.79
72465;BME280;60471;52.150;4.508;2023-05-08T08:21:05;101902.25;;;18.01;69.88
72465;BME280;60471;52.150;4.508;2023-05-08T08:23:33;101894.50;;;18.68;68.82
72465;BME280;60471;52.150;4.508;2023-05-08T08:25:59;101890.84;;;18.96;67.23
72465;BME280;60471;52.150;4.508;2023-05-08T08:28:25;101891.22;;;19.04;65.98
72465;BME280;60471;52.150;4.508;2023-05-08T08:30:52;101894.84;;;19.03;65.31
72465;BME280;60471;52.150;4.508;2023-05-08T08:33:18;101889.16;;;19.47;64.94
72465;BME280;60471;52.150;4.508;2023-05-08T08:35:44;101892.34;;;19.27;65.48
72465;BME280;60471;52.150;4.508;2023-05-08T08:38:10;101898.22;;;19.32;65.45
72465;BME280;60471;52.150;4.508;2023-05-08T08:40:40;101894.00;;;19.55;64.66
72465;BME280;60471;52.150;4.508;2023-05-08T08:43:08;101898.97;;;19.86;63.78
72465;BME280;60471;52.150;4.508;2023-05-08T08:45:35;101891.22;;;19.94;63.32
72465;BME280;60471;52.150;4.508;2023-05-08T08:48:03;101896.47;;;20.21;62.73
72465;BME280;60471;52.150;4.508;2023-05-08T08:50:30;101894.19;;;20.41;61.67
72465;BME280;60471;52.150;4.508;2023-05-08T08:55:43;101894.00;;;20.31;62.03
72465;BME280;60471;52.150;4.508;2023-05-08T08:58:37;101891.75;;;20.25;62.71
72465;BME280;60471;52.150;4.508;2023-05-08T09:01:08;101887.25;;;20.13;63.58
72465;BME280;60471;52.150;4.508;2023-05-08T09:03:41;101888.66;;;20.68;62.10
72465;BME280;60471;52.150;4.508;2023-05-08T09:06:07;101891.03;;;20.10;63.11
72465;BME280;60471;52.150;4.508;2023-05-08T09:08:34;101892.00;;;20.82;60.85
72465;BME280;60471;52.150;4.508;2023-05-08T09:11:02;101893.66;;;20.72;61.39
72465;BME280;60471;52.150;4.508;2023-05-08T09:13:28;101887.78;;;20.67;61.63
72465;BME280;60471;52.150;4.508;2023-05-08T09:15:56;101893.75;;;21.07;60.07
72465;BME280;60471;52.150;4.508;2023-05-08T09:18:23;101889.44;;;20.57;61.96
72465;BME280;60471;52.150;4.508;2023-05-08T09:20:50;101889.84;;;20.02;63.06
72465;BME280;60471;52.150;4.508;2023-05-08T09:23:16;101890.28;;;20.08;63.78
72465;BME280;60471;52.150;4.508;2023-05-08T09:25:44;101886.31;;;20.01;62.31
72465;BME280;60471;52.150;4.508;2023-05-08T09:28:19;101888.25;;;19.86;63.91
72465;BME280;60471;52.150;4.508;2023-05-08T09:30:57;101889.00;;;20.01;63.55
72465;BME280;60471;52.150;4.508;2023-05-08T09:33:26;101888.72;;;19.40;65.84
72465;BME280;60471;52.150;4.508;2023-05-08T09:35:56;101889.97;;;19.22;65.68
72465;BME280;60471;52.150;4.508;2023-05-08T09:38:31;101888.94;;;19.50;65.35
72465;BME280;60471;52.150;4.508;2023-05-08T09:41:08;101897.91;;;19.76;64.00
72465;BME280;60471;52.150;4.508;2023-05-08T09:43:37;101882.34;;;19.94;64.56
72465;BME280;60471;52.150;4.508;2023-05-08T09:46:23;101895.22;;;20.51;62.20
72465;BME280;60471;52.150;4.508;2023-05-08T09:48:53;101891.81;;;20.49;61.33
72465;BME280;60471;52.150;4.508;2023-05-08T09:51:23;101901.09;;;19.81;63.18
72465;BME280;60471;52.150;4.508;2023-05-08T09:53:55;101895.16;;;20.27;62.07
72465;BME280;60471;52.150;4.508;2023-05-08T09:56:37;101892.47;;;20.27;62.53
72465;BME280;60471;52.150;4.508;2023-05-08T09:59:20;101894.84;;;20.44;62.03
72465;BME280;60471;52.150;4.508;2023-05-08T10:01:48;101896.47;;;20.71;61.28
72465;BME280;60471;52.150;4.508;2023-05-08T10:04:15;101891.69;;;20.87;61.04
72465;BME280;60471;52.150;4.508;2023-05-08T10:06:42;101894.19;;;21.01;59.67
72465;BME280;60471;52.150;4.508;2023-05-08T10:09:14;101888.94;;;21.70;57.17
72465;BME280;60471;52.150;4.508;2023-05-08T10:11:47;101890.38;;;21.52;57.81
72465;BME280;60471;52.150;4.508;2023-05-08T10:14:21;101887.16;;;22.04;55.89
72465;BME280;60471;52.150;4.508;2023-05-08T10:16:50;101886.66;;;22.33;55.24
72465;BME280;60471;52.150;4.508;2023-05-08T10:19:19;101885.03;;;22.52;54.12
72465;BME280;60471;52.150;4.508;2023-05-08T10:21:53;101891.84;;;21.67;57.52
72465;BME280;60471;52.150;4.508;2023-05-08T10:24:26;101886.88;;;21.74;56.51
72465;BME280;60471;52.150;4.508;2023-05-08T10:27:18;101881.66;;;21.94;56.27
72465;BME280;60471;52.150;4.508;2023-05-08T10:29:54;101896.34;;;22.78;54.34
72465;BME280;60471;52.150;4.508;2023-05-08T10:32:22;101892.97;;;21.76;56.25
72465;BME280;60471;52.150;4.508;2023-05-08T10:34:52;101890.03;;;20.97;59.02
72465;BME280;60471;52.150;4.508;2023-05-08T10:37:32;101903.13;;;21.72;56.15
72465;BME280;60471;52.150;4.508;2023-05-08T10:40:01;101882.91;;;22.67;53.47
72465;BME280;60471;52.150;4.508;2023-05-08T10:42:29;101884.38;;;23.14;52.52
72465;BME280;60471;52.150;4.508;2023-05-08T10:44:56;101878.69;;;22.97;52.88
72465;BME280;60471;52.150;4.508;2023-05-08T10:47:47;101884.06;;;21.97;55.45
72465;BME280;60471;52.150;4.508;2023-05-08T10:53:30;101869.50;;;22.99;54.02
72465;BME280;60471;52.150;4.508;2023-05-08T10:55:59;101882.88;;;22.78;52.85
72465;BME280;60471;52.150;4.508;2023-05-08T11:03:29;101871.41;;;24.72;49.34
72465;BME280;60471;52.150;4.508;2023-05-08T11:05:57;101880.69;;;23.68;50.23
72465;BME280;60471;52.150;4.508;2023-05-08T11:08:25;101869.34;;;22.14;54.23
72465;BME280;60471;52.150;4.508;2023-05-08T11:13:32;101855.00;;;23.53;50.81
72465;BME280;60471;52.150;4.508;2023-05-08T11:16:03;101856.63;;;24.17;49.75
72465;BME280;60471;52.150;4.508;2023-05-08T11:18:31;101870.00;;;24.28;48.19
72465;BME280;60471;52.150;4.508;2023-05-08T11:21:03;101860.34;;;24.75;47.32
72465;BME280;60471;52.150;4.508;2023-05-08T11:23:34;101858.78;;;24.82;46.81
72465;BME280;60471;52.150;4.508;2023-05-08T11:26:11;101856.69;;;23.96;48.88
72465;BME280;60471;52.150;4.508;2023-05-08T11:28:54;101851.38;;;23.85;49.62
72465;BME280;60471;52.150;4.508;2023-05-08T11:31:22;101849.38;;;24.57;47.84
72465;BME280;60471;52.150;4.508;2023-05-08T11:33:48;101857.50;;;24.27;48.46
72465;BME280;60471;52.150;4.508;2023-05-08T11:36:19;101845.19;;;23.94;49.12
72465;BME280;60471;52.150;4.508;2023-05-08T11:41:33;101834.38;;;23.42;50.70
72465;BME280;60471;52.150;4.508;2023-05-08T11:49:14;101838.91;;;25.03;46.79
72465;BME280;60471;52.150;4.508;2023-05-08T11:51:51;101837.69;;;24.38;48.19
72465;BME280;60471;52.150;4.508;2023-05-08T11:54:23;101838.25;;;25.57;46.48
72465;BME280;60471;52.150;4.508;2023-05-08T11:56:54;101831.41;;;25.73;44.43
72465;BME280;60471;52.150;4.508;2023-05-08T11:59:20;101824.66;;;27.30;42.31
72465;BME280;60471;52.150;4.508;2023-05-08T12:01:48;101840.94;;;28.24;39.80
72465;BME280;60471;52.150;4.508;2023-05-08T12:04:16;101848.38;;;27.10;41.35
72465;BME280;60471;52.150;4.508;2023-05-08T12:06:42;101834.66;;;26.58;41.88
72465;BME280;60471;52.150;4.508;2023-05-08T12:09:13;101824.56;;;25.78;43.45
72465;BME280;60471;52.150;4.508;2023-05-08T12:11:42;101835.09;;;26.09;44.24
72465;BME280;60471;52.150;4.508;2023-05-08T12:14:11;101825.13;;;26.90;42.99
72465;BME280;60471;52.150;4.508;2023-05-08T12:16:39;101834.06;;;24.87;46.13
72465;BME280;60471;52.150;4.508;2023-05-08T12:19:10;101825.09;;;23.26;49.63
72465;BME280;60471;52.150;4.508;2023-05-08T12:21:37;101834.59;;;23.51;49.30
72465;BME280;60471;52.150;4.508;2023-05-08T12:24:09;101822.25;;;24.78;47.77
72465;BME280;60471;52.150;4.508;2023-05-08T12:26:36;101812.16;;;26.40;43.44
72465;BME280;60471;52.150;4.508;2023-05-08T12:29:06;101811.91;;;27.49;40.41
72465;BME280;60471;52.150;4.508;2023-05-08T12:31:34;101811.94;;;26.51;41.41
72465;BME280;60471;52.150;4.508;2023-05-08T12:34:04;101836.16;;;27.76;39.56
72465;BME280;60471;52.150;4.508;2023-05-08T12:36:37;101819.00;;;28.60;39.18
72465;BME280;60471;52.150;4.508;2023-05-08T12:39:17;101820.59;;;27.86;39.84
72465;BME280;60471;52.150;4.508;2023-05-08T12:41:50;101819.81;;;28.36;38.45
72465;BME280;60471;52.150;4.508;2023-05-08T12:44:21;101814.94;;;28.72;38.24
72465;BME280;60471;52.150;4.508;2023-05-08T12:46:54;101818.25;;;26.78;41.31
72465;BME280;60471;52.150;4.508;2023-05-08T12:49:26;101814.19;;;26.01;43.63
72465;BME280;60471;52.150;4.508;2023-05-08T12:52:05;101819.66;;;26.19;43.12
72465;BME280;60471;52.150;4.508;2023-05-08T12:54:39;101811.75;;;25.14;45.67
72465;BME280;60471;52.150;4.508;2023-05-08T12:57:12;101810.94;;;27.32;41.80
72465;BME280;60471;52.150;4.508;2023-05-08T12:59:41;101802.03;;;28.74;38.87
72465;BME280;60471;52.150;4.508;2023-05-08T13:02:26;101811.41;;;27.53;40.23
72465;BME280;60471;52.150;4.508;2023-05-08T13:04:53;101815.72;;;28.32;38.48
72465;BME280;60471;52.150;4.508;2023-05-08T13:07:30;101811.16;;;26.95;41.01
72465;BME280;60471;52.150;4.508;2023-05-08T13:09:59;101800.28;;;27.12;40.43
72465;BME280;60471;52.150;4.508;2023-05-08T13:12:30;101827.91;;;27.60;40.06
72465;BME280;60471;52.150;4.508;2023-05-08T13:14:56;101800.56;;;27.53;40.67
72465;BME280;60471;52.150;4.508;2023-05-08T13:17:22;101811.66;;;26.98;40.90
72465;BME280;60471;52.150;4.508;2023-05-08T13:19:48;101803.50;;;27.60;39.87
72465;BME280;60471;52.150;4.508;2023-05-08T13:22:15;101813.16;;;27.62;39.99
72465;BME280;60471;52.150;4.508;2023-05-08T13:24:41;101802.00;;;27.91;39.10
72465;BME280;60471;52.150;4.508;2023-05-08T13:27:07;101801.88;;;26.34;42.62
72465;BME280;60471;52.150;4.508;2023-05-08T13:29:33;101798.63;;;27.37;39.65
72465;BME280;60471;52.150;4.508;2023-05-08T13:32:00;101787.47;;;28.17;38.68
72465;BME280;60471;52.150;4.508;2023-05-08T13:34:26;101807.44;;;26.42;41.76
72465;BME280;60471;52.150;4.508;2023-05-08T13:36:52;101795.38;;;26.72;42.51
72465;BME280;60471;52.150;4.508;2023-05-08T13:39:18;101791.91;;;27.24;40.83
72465;BME280;60471;52.150;4.508;2023-05-08T13:41:44;101802.25;;;25.57;43.79
72465;BME280;60471;52.150;4.508;2023-05-08T13:44:11;101806.63;;;25.11;45.58
72465;BME280;60471;52.150;4.508;2023-05-08T13:46:37;101819.31;;;23.82;48.20
72465;BME280;60471;52.150;4.508;2023-05-08T13:49:03;101810.13;;;22.80;51.15